sensor_id;sensor_type;location;lat;lon;timestamp;P1;durP1;ratioP1;P2;durP2;ratioP2
76854;SDS011;66343;44.588;33.450;2023-05-20T00:02:23;13.63;;;6.75;;
76854;SDS011;66343;44.588;33.450;2023-05-20T00:04:53;12.93;;;6.53;;
76854;SDS011;66343;44.588;33.450;2023-05-20T00:07:23;17.17;;;7.22;;
76854;SDS011;66343;44.588;33.450;2023-05-20T00:09:54;12.88;;;6.22;;
76854;SDS011;66343;44.588;33.450;2023-05-20T00:12:23;12.07;;;5.85;;
76854;SDS011;66343;44.588;33.450;2023-05-20T00:14:55;14.18;;;6.90;;
76854;SDS011;66343;44.588;33.450;2023-05-20T00:17:26;13.40;;;6.05;;
76854;SDS011;66343;44.588;33.450;2023-05-20T00:19:58;11.80;;;6.22;;
76854;SDS011;66343;44.588;33.450;2023-05-20T00:22:37;12.23;;;5.97;;
76854;SDS011;66343;44.588;33.450;2023-05-20T00:25:06;11.88;;;5.95;;
76854;SDS011;66343;44.588;33.450;2023-05-20T00:27:35;14.60;;;6.45;;
76854;SDS011;66343;44.588;33.450;2023-05-20T00:30:07;13.75;;;5.80;;
76854;SDS011;66343;44.588;33.450;2023-05-20T00:32:39;14.07;;;6.35;;
76854;SDS011;66343;44.588;33.450;2023-05-20T00:35:13;11.70;;;6.20;;
76854;SDS011;66343;44.588;33.450;2023-05-20T00:37:46;13.75;;;5.93;;
76854;SDS011;66343;44.588;33.450;2023-05-20T00:40:21;12.23;;;5.82;;
76854;SDS011;66343;44.588;33.450;2023-05-20T00:42:54;10.13;;;5.78;;
76854;SDS011;66343;44.588;33.450;2023-05-20T00:45:30;13.45;;;5.43;;
76854;SDS011;66343;44.588;33.450;2023-05-20T00:48:03;14.40;;;6.15;;
76854;SDS011;66343;44.588;33.450;2023-05-20T00:50:36;13.15;;;5.10;;
76854;SDS011;66343;44.588;33.450;2023-05-20T00:53:09;12.02;;;6.45;;
76854;SDS011;66343;44.588;33.450;2023-05-20T00:55:38;13.10;;;5.50;;
76854;SDS011;66343;44.588;33.450;2023-05-20T00:58:09;12.15;;;5.15;;
76854;SDS011;66343;44.588;33.450;2023-05-20T01:00:39;13.43;;;5.78;;
76854;SDS011;66343;44.588;33.450;2023-05-20T01:03:08;12.13;;;6.43;;
76854;SDS011;66343;44.588;33.450;2023-05-20T01:05:41;12.40;;;5.68;;
76854;SDS011;66343;44.588;33.450;2023-05-20T01:08:16;11.55;;;5.93;;
76854;SDS011;66343;44.588;33.450;2023-05-20T01:10:50;13.43;;;6.20;;
76854;SDS011;66343;44.588;33.450;2023-05-20T01:13:30;15.60;;;5.93;;
76854;SDS011;66343;44.588;33.450;2023-05-20T01:16:16;12.88;;;5.78;;
76854;SDS011;66343;44.588;33.450;2023-05-20T01:18:52;14.00;;;5.88;;
76854;SDS011;66343;44.588;33.450;2023-05-20T01:21:26;11.93;;;5.03;;
76854;SDS011;66343;44.588;33.450;2023-05-20T01:24:03;12.48;;;5.97;;
76854;SDS011;66343;44.588;33.450;2023-05-20T01:26:43;9.50;;;5.25;;
76854;SDS011;66343;44.588;33.450;2023-05-20T01:29:17;13.25;;;5.75;;
76854;SDS011;66343;44.588;33.450;2023-05-20T01:31:49;12.90;;;6.15;;
76854;SDS011;66343;44.588;33.450;2023-05-20T01:34:27;10.10;;;4.85;;
76854;SDS011;66343;44.588;33.450;2023-05-20T01:36:56;12.77;;;6.13;;
76854;SDS011;66343;44.588;33.450;2023-05-20T01:39:31;15.07;;;5.90;;
76854;SDS011;66343;44.588;33.450;2023-05-20T01:42:04;14.98;;;5.63;;
76854;SDS011;66343;44.588;33.450;2023-05-20T01:44:42;13.85;;;5.63;;
76854;SDS011;66343;44.588;33.450;2023-05-20T01:47:12;12.68;;;5.35;;
76854;SDS011;66343;44.588;33.450;2023-05-20T01:49:42;10.32;;;5.78;;
76854;SDS011;66343;44.588;33.450;2023-05-20T01:52:16;13.73;;;5.78;;
76854;SDS011;66343;44.588;33.450;2023-05-20T01:54:51;11.18;;;6.13;;
76854;SDS011;66343;44.588;33.450;2023-05-20T01:57:23;12.82;;;5.78;;
76854;SDS011;66343;44.588;33.450;2023-05-20T01:59:55;10.95;;;5.25;;
76854;SDS011;66343;44.588;33.450;2023-05-20T02:02:27;9.55;;;5.90;;
76854;SDS011;66343;44.588;33.450;2023-05-20T02:05:01;14.02;;;5.60;;
76854;SDS011;66343;44.588;33.450;2023-05-20T02:07:32;15.23;;;5.97;;
76854;SDS011;66343;44.588;33.450;2023-05-20T02:10:06;14.07;;;5.70;;
76854;SDS011;66343;44.588;33.450;2023-05-20T02:12:44;10.93;;;5.78;;
76854;SDS011;66343;44.588;33.450;2023-05-20T02:15:18;14.88;;;5.70;;
76854;SDS011;66343;44.588;33.450;2023-05-20T02:17:47;10.75;;;6.15;;
76854;SDS011;66343;44.588;33.450;2023-05-20T02:20:21;12.82;;;5.50;;
76854;SDS011;66343;44.588;33.450;2023-05-20T02:22:54;11.57;;;5.70;;
76854;SDS011;66343;44.588;33.450;2023-05-20T02:25:26;15.60;;;5.47;;
76854;SDS011;66343;44.588;33.450;2023-05-20T02:27:55;13.98;;;6.47;;
76854;SDS011;66343;44.588;33.450;2023-05-20T02:30:27;13.10;;;6.18;;
76854;SDS011;66343;44.588;33.450;2023-05-20T02:32:56;12.95;;;5.32;;
76854;SDS011;66343;44.588;33.450;2023-05-20T02:35:26;11.65;;;5.68;;
76854;SDS011;66343;44.588;33.450;2023-05-20T02:37:58;13.00;;;5.28;;
76854;SDS011;66343;44.588;33.450;2023-05-20T02:40:27;13.82;;;5.32;;
76854;SDS011;66343;44.588;33.450;2023-05-20T02:42:59;11.27;;;5.63;;
76854;SDS011;66343;44.588;33.450;2023-05-20T02:45:34;10.48;;;5.60;;
76854;SDS011;66343;44.588;33.450;2023-05-20T02:48:06;14.73;;;5.57;;
76854;SDS011;66343;44.588;33.450;2023-05-20T02:50:38;12.95;;;4.80;;
76854;SDS011;66343;44.588;33.450;2023-05-20T02:53:16;12.60;;;5.40;;
76854;SDS011;66343;44.588;33.450;2023-05-20T02:55:46;8.93;;;4.50;;
76854;SDS011;66343;44.588;33.450;2023-05-20T02:58:17;12.73;;;5.40;;
76854;SDS011;66343;44.588;33.450;2023-05-20T03:00:56;12.43;;;5.18;;
76854;SDS011;66343;44.588;33.450;2023-05-20T03:03:32;9.68;;;4.85;;
76854;SDS011;66343;44.588;33.450;2023-05-20T03:06:04;15.88;;;5.97;;
76854;SDS011;66343;44.588;33.450;2023-05-20T03:08:36;14.13;;;6.00;;
76854;SDS011;66343;44.588;33.450;2023-05-20T03:11:10;12.07;;;5.70;;
76854;SDS011;66343;44.588;33.450;2023-05-20T03:13:40;12.20;;;5.20;;
76854;SDS011;66343;44.588;33.450;2023-05-20T03:16:14;9.98;;;5.75;;
76854;SDS011;66343;44.588;33.450;2023-05-20T03:18:49;11.57;;;4.88;;
76854;SDS011;66343;44.588;33.450;2023-05-20T03:21:24;12.60;;;4.95;;
76854;SDS011;66343;44.588;33.450;2023-05-20T03:23:59;12.45;;;4.75;;
76854;SDS011;66343;44.588;33.450;2023-05-20T03:26:30;11.00;;;4.72;;
76854;SDS011;66343;44.588;33.450;2023-05-20T03:29:08;10.50;;;4.20;;
76854;SDS011;66343;44.588;33.450;2023-05-20T03:34:11;11.63;;;4.68;;
76854;SDS011;66343;44.588;33.450;2023-05-20T03:36:41;14.70;;;5.88;;
76854;SDS011;66343;44.588;33.450;2023-05-20T03:39:18;11.05;;;5.00;;
76854;SDS011;66343;44.588;33.450;2023-05-20T03:41:52;11.35;;;4.68;;
76854;SDS011;66343;44.588;33.450;2023-05-20T03:44:21;10.93;;;5.13;;
76854;SDS011;66343;44.588;33.450;2023-05-20T03:46:59;12.35;;;4.80;;
76854;SDS011;66343;44.588;33.450;2023-05-20T03:49:32;8.48;;;4.25;;
76854;SDS011;66343;44.588;33.450;2023-05-20T03:52:04;10.40;;;4.03;;
76854;SDS011;66343;44.588;33.450;2023-05-20T03:54:36;12.85;;;4.68;;
76854;SDS011;66343;44.588;33.450;2023-05-20T03:57:10;9.13;;;4.70;;
76854;SDS011;66343;44.588;33.450;2023-05-20T03:59:43;9.13;;;4.32;;
76854;SDS011;66343;44.588;33.450;2023-05-20T04:02:17;11.27;;;4.88;;
76854;SDS011;66343;44.588;33.450;2023-05-20T04:04:50;9.60;;;4.90;;
76854;SDS011;66343;44.588;33.450;2023-05-20T04:07:20;10.40;;;5.20;;
76854;SDS011;66343;44.588;33.450;2023-05-20T04:09:52;9.63;;;4.70;;
76854;SDS011;66343;44.588;33.450;2023-05-20T04:15:03;10.05;;;4.70;;
76854;SDS011;66343;44.588;33.450;2023-05-20T04:17:40;11.65;;;5.15;;
76854;SDS011;66343;44.588;33.450;2023-05-20T04:20:18;10.40;;;4.60;;
76854;SDS011;66343;44.588;33.450;2023-05-20T04:22:52;12.52;;;5.15;;
76854;SDS011;66343;44.588;33.450;2023-05-20T04:28:00;10.15;;;5.20;;
76854;SDS011;66343;44.588;33.450;2023-05-20T04:30:32;8.80;;;4.40;;
76854;SDS011;66343;44.588;33.450;2023-05-20T04:33:09;9.65;;;4.88;;
76854;SDS011;66343;44.588;33.450;2023-05-20T04:35:41;11.88;;;4.65;;
76854;SDS011;66343;44.588;33.450;2023-05-20T04:38:12;9.15;;;4.60;;
76854;SDS011;66343;44.588;33.450;2023-05-20T04:40:48;9.82;;;4.47;;
76854;SDS011;66343;44.588;33.450;2023-05-20T04:43:20;9.80;;;4.72;;
76854;SDS011;66343;44.588;33.450;2023-05-20T04:45:53;13.63;;;4.90;;
76854;SDS011;66343;44.588;33.450;2023-05-20T04:48:23;11.10;;;5.55;;
76854;SDS011;66343;44.588;33.450;2023-05-20T04:50:53;12.25;;;4.60;;
76854;SDS011;66343;44.588;33.450;2023-05-20T04:53:23;10.20;;;4.68;;
76854;SDS011;66343;44.588;33.450;2023-05-20T04:55:56;10.77;;;4.53;;
76854;SDS011;66343;44.588;33.450;2023-05-20T04:58:35;13.70;;;4.95;;
76854;SDS011;66343;44.588;33.450;2023-05-20T05:01:05;11.55;;;5.03;;
76854;SDS011;66343;44.588;33.450;2023-05-20T05:03:37;13.98;;;5.25;;
76854;SDS011;66343;44.588;33.450;2023-05-20T05:06:09;10.50;;;4.80;;
76854;SDS011;66343;44.588;33.450;2023-05-20T05:08:38;9.48;;;4.75;;
76854;SDS011;66343;44.588;33.450;2023-05-20T05:13:45;11.70;;;4.55;;
76854;SDS011;66343;44.588;33.450;2023-05-20T05:16:22;11.73;;;4.55;;
76854;SDS011;66343;44.588;33.450;2023-05-20T05:18:57;14.45;;;5.10;;
76854;SDS011;66343;44.588;33.450;2023-05-20T05:21:36;12.27;;;5.35;;
76854;SDS011;66343;44.588;33.450;2023-05-20T05:24:10;10.82;;;4.95;;
76854;SDS011;66343;44.588;33.450;2023-05-20T05:26:45;12.77;;;5.45;;
76854;SDS011;66343;44.588;33.450;2023-05-20T05:31:50;12.60;;;5.10;;
76854;SDS011;66343;44.588;33.450;2023-05-20T05:34:20;12.75;;;5.00;;
76854;SDS011;66343;44.588;33.450;2023-05-20T05:36:51;13.73;;;5.25;;
76854;SDS011;66343;44.588;33.450;2023-05-20T05:39:26;13.43;;;5.20;;
76854;SDS011;66343;44.588;33.450;2023-05-20T05:41:59;13.32;;;5.32;;
76854;SDS011;66343;44.588;33.450;2023-05-20T05:44:36;12.10;;;5.90;;
76854;SDS011;66343;44.588;33.450;2023-05-20T05:47:09;10.20;;;4.95;;
76854;SDS011;66343;44.588;33.450;2023-05-20T05:49:41;12.63;;;4.40;;
76854;SDS011;66343;44.588;33.450;2023-05-20T05:52:11;14.85;;;5.15;;
76854;SDS011;66343;44.588;33.450;2023-05-20T05:54:42;13.35;;;4.85;;
76854;SDS011;66343;44.588;33.450;2023-05-20T05:57:12;12.55;;;4.85;;
76854;SDS011;66343;44.588;33.450;2023-05-20T05:59:42;11.55;;;5.00;;
76854;SDS011;66343;44.588;33.450;2023-05-20T06:02:11;12.48;;;4.82;;
76854;SDS011;66343;44.588;33.450;2023-05-20T06:04:44;12.25;;;4.90;;
76854;SDS011;66343;44.588;33.450;2023-05-20T06:07:13;14.93;;;5.07;;
76854;SDS011;66343;44.588;33.450;2023-05-20T06:09:42;12.77;;;4.95;;
76854;SDS011;66343;44.588;33.450;2023-05-20T06:12:14;11.00;;;5.07;;
76854;SDS011;66343;44.588;33.450;2023-05-20T06:14:44;10.35;;;4.55;;
76854;SDS011;66343;44.588;33.450;2023-05-20T06:17:17;14.50;;;5.18;;
76854;SDS011;66343;44.588;33.450;2023-05-20T06:19:50;12.40;;;5.00;;
76854;SDS011;66343;44.588;33.450;2023-05-20T06:24:52;10.65;;;4.53;;
76854;SDS011;66343;44.588;33.450;2023-05-20T06:29:57;13.30;;;4.35;;
76854;SDS011;66343;44.588;33.450;2023-05-20T06:32:29;10.20;;;3.88;;
76854;SDS011;66343;44.588;33.450;2023-05-20T06:34:58;10.38;;;4.10;;
76854;SDS011;66343;44.588;33.450;2023-05-20T06:37:30;10.93;;;4.55;;
76854;SDS011;66343;44.588;33.450;2023-05-20T06:40:04;13.48;;;4.60;;
76854;SDS011;66343;44.588;33.450;2023-05-20T06:42:45;12.27;;;4.13;;
76854;SDS011;66343;44.588;33.450;2023-05-20T06:45:17;13.18;;;5.70;;
76854;SDS011;66343;44.588;33.450;2023-05-20T06:47:53;15.30;;;5.22;;
76854;SDS011;66343;44.588;33.450;2023-05-20T06:50:30;13.15;;;5.70;;
76854;SDS011;66343;44.588;33.450;2023-05-20T06:53:02;17.38;;;5.50;;
76854;SDS011;66343;44.588;33.450;2023-05-20T06:55:37;13.68;;;5.13;;
76854;SDS011;66343;44.588;33.450;2023-05-20T06:58:08;16.27;;;6.00;;
76854;SDS011;66343;44.588;33.450;2023-05-20T07:00:53;13.70;;;5.13;;
76854;SDS011;66343;44.588;33.450;2023-05-20T07:03:26;12.20;;;5.43;;
76854;SDS011;66343;44.588;33.450;2023-05-20T07:05:57;10.13;;;4.25;;
76854;SDS011;66343;44.588;33.450;2023-05-20T07:08:30;14.10;;;4.82;;
76854;SDS011;66343;44.588;33.450;2023-05-20T07:11:04;10.02;;;4.10;;
76854;SDS011;66343;44.588;33.450;2023-05-20T07:13:43;15.98;;;5.07;;
76854;SDS011;66343;44.588;33.450;2023-05-20T07:16:13;11.27;;;4.28;;
76854;SDS011;66343;44.588;33.450;2023-05-20T07:18:51;10.57;;;4.00;;
76854;SDS011;66343;44.588;33.450;2023-05-20T07:21:27;13.52;;;4.68;;
76854;SDS011;66343;44.588;33.450;2023-05-20T07:24:19;9.88;;;4.50;;
76854;SDS011;66343;44.588;33.450;2023-05-20T07:26:59;10.82;;;4.53;;
76854;SDS011;66343;44.588;33.450;2023-05-20T07:29:28;15.48;;;4.40;;
76854;SDS011;66343;44.588;33.450;2023-05-20T07:31:58;10.40;;;4.40;;
76854;SDS011;66343;44.588;33.450;2023-05-20T07:34:27;9.82;;;4.30;;
76854;SDS011;66343;44.588;33.450;2023-05-20T07:36:58;15.43;;;4.47;;
76854;SDS011;66343;44.588;33.450;2023-05-20T07:39:29;9.35;;;3.88;;
76854;SDS011;66343;44.588;33.450;2023-05-20T07:42:01;11.98;;;4.80;;
76854;SDS011;66343;44.588;33.450;2023-05-20T07:44:33;10.02;;;4.10;;
76854;SDS011;66343;44.588;33.450;2023-05-20T07:47:07;13.05;;;4.30;;
76854;SDS011;66343;44.588;33.450;2023-05-20T07:49:41;11.82;;;4.40;;
76854;SDS011;66343;44.588;33.450;2023-05-20T07:52:11;13.40;;;4.47;;
76854;SDS011;66343;44.588;33.450;2023-05-20T07:54:46;13.27;;;4.57;;
76854;SDS011;66343;44.588;33.450;2023-05-20T07:57:18;9.90;;;4.00;;
76854;SDS011;66343;44.588;33.450;2023-05-20T07:59:51;10.30;;;4.72;;
76854;SDS011;66343;44.588;33.450;2023-05-20T08:02:20;12.95;;;4.57;;
76854;SDS011;66343;44.588;33.450;2023-05-20T08:05:05;12.30;;;4.25;;
76854;SDS011;66343;44.588;33.450;2023-05-20T08:07:37;16.15;;;4.60;;
76854;SDS011;66343;44.588;33.450;2023-05-20T08:10:07;11.95;;;4.68;;
76854;SDS011;66343;44.588;33.450;2023-05-20T08:12:37;11.18;;;3.90;;
76854;SDS011;66343;44.588;33.450;2023-05-20T08:15:07;15.27;;;4.78;;
76854;SDS011;66343;44.588;33.450;2023-05-20T08:17:43;13.57;;;4.70;;
76854;SDS011;66343;44.588;33.450;2023-05-20T08:20:13;12.20;;;4.53;;
76854;SDS011;66343;44.588;33.450;2023-05-20T08:22:45;13.10;;;4.80;;
76854;SDS011;66343;44.588;33.450;2023-05-20T08:25:20;11.48;;;4.63;;
76854;SDS011;66343;44.588;33.450;2023-05-20T08:27:51;12.10;;;4.43;;
76854;SDS011;66343;44.588;33.450;2023-05-20T08:30:21;11.95;;;4.35;;
76854;SDS011;66343;44.588;33.450;2023-05-20T08:32:54;10.05;;;4.47;;
76854;SDS011;66343;44.588;33.450;2023-05-20T08:35:26;13.43;;;4.90;;
76854;SDS011;66343;44.588;33.450;2023-05-20T08:37:57;12.85;;;5.45;;
76854;SDS011;66343;44.588;33.450;2023-05-20T08:40:36;12.27;;;4.65;;
76854;SDS011;66343;44.588;33.450;2023-05-20T08:43:12;11.77;;;4.82;;
76854;SDS011;66343;44.588;33.450;2023-05-20T08:45:51;13.25;;;5.07;;
76854;SDS011;66343;44.588;33.450;2023-05-20T08:48:30;12.55;;;4.47;;
76854;SDS011;66343;44.588;33.450;2023-05-20T08:51:03;15.43;;;5.28;;
76854;SDS011;66343;44.588;33.450;2023-05-20T08:53:43;14.82;;;5.78;;
76854;SDS011;66343;44.588;33.450;2023-05-20T08:56:18;14.27;;;5.45;;
76854;SDS011;66343;44.588;33.450;2023-05-20T08:58:49;13.70;;;5.75;;
76854;SDS011;66343;44.588;33.450;2023-05-20T09:01:23;13.18;;;5.80;;
76854;SDS011;66343;44.588;33.450;2023-05-20T09:03:56;12.00;;;6.38;;
76854;SDS011;66343;44.588;33.450;2023-05-20T09:06:29;12.63;;;6.10;;
76854;SDS011;66343;44.588;33.450;2023-05-20T09:09:17;16.02;;;7.38;;
76854;SDS011;66343;44.588;33.450;2023-05-20T09:11:49;15.40;;;6.28;;
76854;SDS011;66343;44.588;33.450;2023-05-20T09:14:28;14.50;;;6.38;;
76854;SDS011;66343;44.588;33.450;2023-05-20T09:17:08;15.63;;;7.22;;
76854;SDS011;66343;44.588;33.450;2023-05-20T09:19:41;11.07;;;5.75;;
76854;SDS011;66343;44.588;33.450;2023-05-20T09:22:26;13.05;;;6.20;;
76854;SDS011;66343;44.588;33.450;2023-05-20T09:25:01;13.30;;;6.18;;
76854;SDS011;66343;44.588;33.450;2023-05-20T09:27:36;13.73;;;6.07;;
76854;SDS011;66343;44.588;33.450;2023-05-20T09:30:11;12.18;;;5.82;;
76854;SDS011;66343;44.588;33.450;2023-05-20T09:32:55;11.85;;;6.07;;
76854;SDS011;66343;44.588;33.450;2023-05-20T09:35:27;13.50;;;5.90;;
76854;SDS011;66343;44.588;33.450;2023-05-20T09:38:03;15.50;;;5.93;;
76854;SDS011;66343;44.588;33.450;2023-05-20T09:40:37;17.52;;;5.95;;
76854;SDS011;66343;44.588;33.450;2023-05-20T09:43:10;12.95;;;5.38;;
76854;SDS011;66343;44.588;33.450;2023-05-20T09:45:45;10.85;;;5.72;;
76854;SDS011;66343;44.588;33.450;2023-05-20T09:48:18;11.88;;;5.38;;
76854;SDS011;66343;44.588;33.450;2023-05-20T09:50:49;13.55;;;5.88;;
76854;SDS011;66343;44.588;33.450;2023-05-20T09:53:20;12.80;;;5.78;;
76854;SDS011;66343;44.588;33.450;2023-05-20T09:55:57;13.57;;;5.55;;
76854;SDS011;66343;44.588;33.450;2023-05-20T09:58:32;11.82;;;5.65;;
76854;SDS011;66343;44.588;33.450;2023-05-20T10:01:08;14.60;;;6.40;;
76854;SDS011;66343;44.588;33.450;2023-05-20T10:03:39;12.68;;;5.10;;
76854;SDS011;66343;44.588;33.450;2023-05-20T10:06:22;11.48;;;5.05;;
76854;SDS011;66343;44.588;33.450;2023-05-20T10:09:23;11.77;;;5.63;;
76854;SDS011;66343;44.588;33.450;2023-05-20T10:20:48;10.68;;;5.53;;
76854;SDS011;66343;44.588;33.450;2023-05-20T10:23:29;11.30;;;4.85;;
76854;SDS011;66343;44.588;33.450;2023-05-20T10:26:05;12.05;;;5.10;;
76854;SDS011;66343;44.588;33.450;2023-05-20T10:28:39;15.77;;;5.15;;
76854;SDS011;66343;44.588;33.450;2023-05-20T10:31:19;12.20;;;5.60;;
76854;SDS011;66343;44.588;33.450;2023-05-20T10:33:52;14.40;;;5.57;;
76854;SDS011;66343;44.588;33.450;2023-05-20T10:36:30;12.30;;;5.22;;
76854;SDS011;66343;44.588;33.450;2023-05-20T10:39:02;11.05;;;5.20;;
76854;SDS011;66343;44.588;33.450;2023-05-20T10:41:35;10.30;;;4.20;;
76854;SDS011;66343;44.588;33.450;2023-05-20T10:44:10;10.77;;;4.40;;
76854;SDS011;66343;44.588;33.450;2023-05-20T10:46:39;10.82;;;5.03;;
76854;SDS011;66343;44.588;33.450;2023-05-20T10:49:32;11.80;;;5.25;;
76854;SDS011;66343;44.588;33.450;2023-05-20T10:52:06;14.10;;;5.50;;
76854;SDS011;66343;44.588;33.450;2023-05-20T10:54:53;11.98;;;5.07;;
76854;SDS011;66343;44.588;33.450;2023-05-20T10:57:26;15.93;;;5.85;;
76854;SDS011;66343;44.588;33.450;2023-05-20T11:00:02;12.05;;;5.00;;
76854;SDS011;66343;44.588;33.450;2023-05-20T11:02:33;10.80;;;4.90;;
76854;SDS011;66343;44.588;33.450;2023-05-20T11:05:04;12.52;;;5.40;;
76854;SDS011;66343;44.588;33.450;2023-05-20T11:07:36;11.13;;;5.60;;
76854;SDS011;66343;44.588;33.450;2023-05-20T11:10:08;9.82;;;4.93;;
76854;SDS011;66343;44.588;33.450;2023-05-20T11:12:37;13.88;;;5.68;;
76854;SDS011;66343;44.588;33.450;2023-05-20T11:15:11;12.27;;;5.30;;
76854;SDS011;66343;44.588;33.450;2023-05-20T11:17:50;13.13;;;5.18;;
76854;SDS011;66343;44.588;33.450;2023-05-20T11:20:45;9.85;;;5.07;;
76854;SDS011;66343;44.588;33.450;2023-05-20T11:23:15;11.18;;;5.40;;
76854;SDS011;66343;44.588;33.450;2023-05-20T11:25:46;10.45;;;5.40;;
76854;SDS011;66343;44.588;33.450;2023-05-20T11:28:21;10.55;;;5.38;;
76854;SDS011;66343;44.588;33.450;2023-05-20T11:30:52;13.40;;;5.70;;
76854;SDS011;66343;44.588;33.450;2023-05-20T11:33:25;11.93;;;5.53;;
76854;SDS011;66343;44.588;33.450;2023-05-20T11:36:00;13.07;;;5.28;;
76854;SDS011;66343;44.588;33.450;2023-05-20T11:38:31;10.35;;;5.50;;
76854;SDS011;66343;44.588;33.450;2023-05-20T11:41:01;10.82;;;5.50;;
76854;SDS011;66343;44.588;33.450;2023-05-20T11:43:34;12.80;;;5.28;;
76854;SDS011;66343;44.588;33.450;2023-05-20T11:46:09;12.90;;;5.88;;
76854;SDS011;66343;44.588;33.450;2023-05-20T11:48:50;13.35;;;5.53;;
76854;SDS011;66343;44.588;33.450;2023-05-20T11:51:29;11.95;;;5.43;;
76854;SDS011;66343;44.588;33.450;2023-05-20T11:53:59;12.45;;;5.57;;
76854;SDS011;66343;44.588;33.450;2023-05-20T11:56:32;13.68;;;6.13;;
76854;SDS011;66343;44.588;33.450;2023-05-20T11:59:13;11.88;;;5.70;;
76854;SDS011;66343;44.588;33.450;2023-05-20T12:01:46;12.88;;;6.63;;
76854;SDS011;66343;44.588;33.450;2023-05-20T12:04:15;14.00;;;6.53;;
76854;SDS011;66343;44.588;33.450;2023-05-20T12:06:48;13.57;;;7.28;;
76854;SDS011;66343;44.588;33.450;2023-05-20T12:09:24;11.90;;;6.30;;
76854;SDS011;66343;44.588;33.450;2023-05-20T12:11:57;14.15;;;6.13;;
76854;SDS011;66343;44.588;33.450;2023-05-20T12:14:28;14.45;;;6.18;;
76854;SDS011;66343;44.588;33.450;2023-05-20T12:17:02;17.10;;;6.45;;
76854;SDS011;66343;44.588;33.450;2023-05-20T12:19:35;13.48;;;6.13;;
76854;SDS011;66343;44.588;33.450;2023-05-20T12:22:11;11.43;;;5.90;;
76854;SDS011;66343;44.588;33.450;2023-05-20T12:27:15;14.95;;;5.85;;
76854;SDS011;66343;44.588;33.450;2023-05-20T12:29:50;10.60;;;6.10;;
76854;SDS011;66343;44.588;33.450;2023-05-20T12:32:20;12.77;;;5.95;;
76854;SDS011;66343;44.588;33.450;2023-05-20T12:34:51;11.80;;;5.75;;
76854;SDS011;66343;44.588;33.450;2023-05-20T12:37:20;13.23;;;5.45;;
76854;SDS011;66343;44.588;33.450;2023-05-20T12:39:59;13.40;;;5.70;;
76854;SDS011;66343;44.588;33.450;2023-05-20T12:42:29;12.85;;;5.75;;
76854;SDS011;66343;44.588;33.450;2023-05-20T12:44:59;14.70;;;6.82;;
76854;SDS011;66343;44.588;33.450;2023-05-20T12:47:34;15.52;;;6.40;;
76854;SDS011;66343;44.588;33.450;2023-05-20T12:50:04;15.25;;;5.93;;
76854;SDS011;66343;44.588;33.450;2023-05-20T12:52:34;15.07;;;5.78;;
76854;SDS011;66343;44.588;33.450;2023-05-20T12:55:08;9.90;;;5.28;;
76854;SDS011;66343;44.588;33.450;2023-05-20T12:57:44;14.63;;;5.88;;
76854;SDS011;66343;44.588;33.450;2023-05-20T13:00:20;12.73;;;5.50;;
76854;SDS011;66343;44.588;33.450;2023-05-20T13:02:51;11.75;;;5.63;;
76854;SDS011;66343;44.588;33.450;2023-05-20T13:05:28;13.85;;;5.45;;
76854;SDS011;66343;44.588;33.450;2023-05-20T13:08:00;9.15;;;4.80;;
76854;SDS011;66343;44.588;33.450;2023-05-20T13:10:31;12.98;;;5.47;;
76854;SDS011;66343;44.588;33.450;2023-05-20T13:13:06;12.95;;;5.82;;
76854;SDS011;66343;44.588;33.450;2023-05-20T13:15:39;11.38;;;5.15;;
76854;SDS011;66343;44.588;33.450;2023-05-20T13:18:12;12.48;;;5.22;;
76854;SDS011;66343;44.588;33.450;2023-05-20T13:20:49;14.10;;;6.18;;
76854;SDS011;66343;44.588;33.450;2023-05-20T13:23:25;11.98;;;5.38;;
76854;SDS011;66343;44.588;33.450;2023-05-20T13:25:58;10.60;;;5.97;;
76854;SDS011;66343;44.588;33.450;2023-05-20T13:28:28;12.65;;;5.10;;
76854;SDS011;66343;44.588;33.450;2023-05-20T13:30:57;11.57;;;6.13;;
76854;SDS011;66343;44.588;33.450;2023-05-20T13:33:29;14.10;;;5.90;;
76854;SDS011;66343;44.588;33.450;2023-05-20T13:36:02;10.07;;;5.53;;
76854;SDS011;66343;44.588;33.450;2023-05-20T13:38:38;14.13;;;5.63;;
76854;SDS011;66343;44.588;33.450;2023-05-20T13:41:08;10.88;;;5.60;;
76854;SDS011;66343;44.588;33.450;2023-05-20T13:43:41;12.65;;;5.80;;
76854;SDS011;66343;44.588;33.450;2023-05-20T13:46:12;11.40;;;6.10;;
76854;SDS011;66343;44.588;33.450;2023-05-20T13:48:44;11.75;;;5.65;;
76854;SDS011;66343;44.588;33.450;2023-05-20T13:51:17;11.43;;;5.97;;
76854;SDS011;66343;44.588;33.450;2023-05-20T13:53:50;11.93;;;5.63;;
76854;SDS011;66343;44.588;33.450;2023-05-20T13:56:20;11.52;;;5.68;;
76854;SDS011;66343;44.588;33.450;2023-05-20T13:58:52;12.25;;;6.18;;
76854;SDS011;66343;44.588;33.450;2023-05-20T14:01:24;11.82;;;5.53;;
76854;SDS011;66343;44.588;33.450;2023-05-20T14:03:59;13.50;;;5.18;;
76854;SDS011;66343;44.588;33.450;2023-05-20T14:06:29;13.45;;;6.20;;
76854;SDS011;66343;44.588;33.450;2023-05-20T14:08:59;11.15;;;4.97;;
76854;SDS011;66343;44.588;33.450;2023-05-20T14:11:29;17.50;;;6.38;;
76854;SDS011;66343;44.588;33.450;2023-05-20T14:14:01;10.30;;;5.60;;
76854;SDS011;66343;44.588;33.450;2023-05-20T14:19:03;10.77;;;5.32;;
76854;SDS011;66343;44.588;33.450;2023-05-20T14:21:36;13.13;;;5.35;;
76854;SDS011;66343;44.588;33.450;2023-05-20T14:24:05;10.35;;;5.82;;
76854;SDS011;66343;44.588;33.450;2023-05-20T14:26:35;10.23;;;5.07;;
76854;SDS011;66343;44.588;33.450;2023-05-20T14:29:04;13.50;;;6.10;;
76854;SDS011;66343;44.588;33.450;2023-05-20T14:31:34;11.60;;;5.57;;
76854;SDS011;66343;44.588;33.450;2023-05-20T14:34:07;10.90;;;5.40;;
76854;SDS011;66343;44.588;33.450;2023-05-20T14:36:36;10.23;;;5.68;;
76854;SDS011;66343;44.588;33.450;2023-05-20T14:39:09;14.88;;;5.97;;
76854;SDS011;66343;44.588;33.450;2023-05-20T14:41:40;11.20;;;5.65;;
76854;SDS011;66343;44.588;33.450;2023-05-20T14:44:15;10.05;;;5.03;;
76854;SDS011;66343;44.588;33.450;2023-05-20T14:46:44;13.32;;;5.15;;
76854;SDS011;66343;44.588;33.450;2023-05-20T14:49:17;8.93;;;5.13;;
76854;SDS011;66343;44.588;33.450;2023-05-20T14:51:50;13.95;;;5.50;;
76854;SDS011;66343;44.588;33.450;2023-05-20T14:54:22;10.25;;;5.30;;
76854;SDS011;66343;44.588;33.450;2023-05-20T14:56:59;11.60;;;5.43;;
76854;SDS011;66343;44.588;33.450;2023-05-20T14:59:32;11.35;;;5.10;;
76854;SDS011;66343;44.588;33.450;2023-05-20T15:02:03;13.05;;;5.53;;
76854;SDS011;66343;44.588;33.450;2023-05-20T15:04:33;13.88;;;5.38;;
76854;SDS011;66343;44.588;33.450;2023-05-20T15:07:04;13.43;;;4.90;;
76854;SDS011;66343;44.588;33.450;2023-05-20T15:09:33;11.63;;;5.25;;
76854;SDS011;66343;44.588;33.450;2023-05-20T15:12:05;12.57;;;5.60;;
76854;SDS011;66343;44.588;33.450;2023-05-20T15:14:35;13.13;;;5.40;;
76854;SDS011;66343;44.588;33.450;2023-05-20T15:17:07;12.82;;;5.63;;
76854;SDS011;66343;44.588;33.450;2023-05-20T15:19:37;9.93;;;5.53;;
76854;SDS011;66343;44.588;33.450;2023-05-20T15:22:09;11.90;;;5.57;;
76854;SDS011;66343;44.588;33.450;2023-05-20T15:24:42;12.25;;;5.63;;
76854;SDS011;66343;44.588;33.450;2023-05-20T15:27:11;11.07;;;5.57;;
76854;SDS011;66343;44.588;33.450;2023-05-20T15:29:48;10.57;;;5.25;;
76854;SDS011;66343;44.588;33.450;2023-05-20T15:32:20;12.20;;;5.43;;